sensor_id;sensor_type;location;lat;lon;timestamp;temperature;humidity
23120;DHT22;11729;50.836;4.330;2023-03-16T00:01:10;8.10;99.90
23120;DHT22;11729;50.836;4.330;2023-03-16T00:03:36;8.20;99.90
23120;DHT22;11729;50.836;4.330;2023-03-16T00:06:02;8.30;99.90
23120;DHT22;11729;50.836;4.330;2023-03-16T00:08:28;8.30;99.90
23120;DHT22;11729;50.836;4.330;2023-03-16T00:10:53;8.30;99.90
23120;DHT22;11729;50.836;4.330;2023-03-16T00:13:21;8.10;99.90
23120;DHT22;11729;50.836;4.330;2023-03-16T00:15:52;8.10;99.90
23120;DHT22;11729;50.836;4.330;2023-03-16T00:18:18;8.10;99.90
23120;DHT22;11729;50.836;4.330;2023-03-16T00:20:44;8.10;99.90
23120;DHT22;11729;50.836;4.330;2023-03-16T00:23:09;8.10;99.90
23120;DHT22;11729;50.836;4.330;2023-03-16T00:25:35;8.10;99.90
23120;DHT22;11729;50.836;4.330;2023-03-16T00:28:02;8.20;99.90
23120;DHT22;11729;50.836;4.330;2023-03-16T00:30:29;8.20;99.90
23120;DHT22;11729;50.836;4.330;2023-03-16T00:32:56;8.30;99.90
23120;DHT22;11729;50.836;4.330;2023-03-16T00:35:21;8.40;99.90
23120;DHT22;11729;50.836;4.330;2023-03-16T00:37:47;8.40;99.90
23120;DHT22;11729;50.836;4.330;2023-03-16T00:40:12;8.30;99.90
23120;DHT22;11729;50.836;4.330;2023-03-16T00:42:38;8.30;99.90
23120;DHT22;11729;50.836;4.330;2023-03-16T00:45:04;8.40;99.90
23120;DHT22;11729;50.836;4.330;2023-03-16T00:47:32;8.30;99.90
23120;DHT22;11729;50.836;4.330;2023-03-16T00:49:58;8.10;99.90
23120;DHT22;11729;50.836;4.330;2023-03-16T00:52:25;8.10;99.90
23120;DHT22;11729;50.836;4.330;2023-03-16T00:54:52;8.10;99.90
23120;DHT22;11729;50.836;4.330;2023-03-16T00:57:20;8.00;99.90
23120;DHT22;11729;50.836;4.330;2023-03-16T00:59:47;8.00;99.90
23120;DHT22;11729;50.836;4.330;2023-03-16T01:02:14;8.20;99.90
23120;DHT22;11729;50.836;4.330;2023-03-16T01:04:40;8.20;99.90
23120;DHT22;11729;50.836;4.330;2023-03-16T01:07:07;8.30;99.90
23120;DHT22;11729;50.836;4.330;2023-03-16T01:09:33;8.30;99.90
23120;DHT22;11729;50.836;4.330;2023-03-16T01:12:14;8.40;99.90
23120;DHT22;11729;50.836;4.330;2023-03-16T01:14:41;8.50;99.90
23120;DHT22;11729;50.836;4.330;2023-03-16T01:17:07;8.60;99.90
23120;DHT22;11729;50.836;4.330;2023-03-16T01:19:34;8.60;99.90
23120;DHT22;11729;50.836;4.330;2023-03-16T01:22:01;8.50;99.90
23120;DHT22;11729;50.836;4.330;2023-03-16T01:24:28;8.50;99.90
23120;DHT22;11729;50.836;4.330;2023-03-16T01:26:54;8.50;99.90
23120;DHT22;11729;50.836;4.330;2023-03-16T01:29:21;8.50;99.90
23120;DHT22;11729;50.836;4.330;2023-03-16T01:31:46;8.50;99.90
23120;DHT22;11729;50.836;4.330;2023-03-16T01:34:15;8.50;99.90
23120;DHT22;11729;50.836;4.330;2023-03-16T01:36:46;8.40;99.90
23120;DHT22;11729;50.836;4.330;2023-03-16T01:39:12;8.40;99.90
23120;DHT22;11729;50.836;4.330;2023-03-16T01:41:39;8.30;99.90
23120;DHT22;11729;50.836;4.330;2023-03-16T01:44:14;8.40;99.90
23120;DHT22;11729;50.836;4.330;2023-03-16T01:46:40;8.40;99.90
23120;DHT22;11729;50.836;4.330;2023-03-16T01:49:17;8.40;99.90
23120;DHT22;11729;50.836;4.330;2023-03-16T01:51:58;8.40;99.90
23120;DHT22;11729;50.836;4.330;2023-03-16T01:54:30;8.40;99.90
23120;DHT22;11729;50.836;4.330;2023-03-16T01:59:37;8.20;99.90
23120;DHT22;11729;50.836;4.330;2023-03-16T02:02:03;8.20;99.90
23120;DHT22;11729;50.836;4.330;2023-03-16T02:07:01;8.20;99.90
23120;DHT22;11729;50.836;4.330;2023-03-16T02:09:30;8.20;99.90
23120;DHT22;11729;50.836;4.330;2023-03-16T02:11:57;8.10;99.90
23120;DHT22;11729;50.836;4.330;2023-03-16T02:14:22;8.00;99.90
23120;DHT22;11729;50.836;4.330;2023-03-16T02:16:49;8.00;99.90
23120;DHT22;11729;50.836;4.330;2023-03-16T02:19:29;8.00;99.90
23120;DHT22;11729;50.836;4.330;2023-03-16T02:22:03;7.90;99.90
23120;DHT22;11729;50.836;4.330;2023-03-16T02:24:31;8.00;99.90
23120;DHT22;11729;50.836;4.330;2023-03-16T02:32:37;8.00;99.90
23120;DHT22;11729;50.836;4.330;2023-03-16T02:35:05;8.00;99.90
23120;DHT22;11729;50.836;4.330;2023-03-16T02:37:31;8.00;99.90
23120;DHT22;11729;50.836;4.330;2023-03-16T02:40:00;8.00;99.90
23120;DHT22;11729;50.836;4.330;2023-03-16T02:42:27;8.10;99.90
23120;DHT22;11729;50.836;4.330;2023-03-16T02:44:57;8.00;99.90
23120;DHT22;11729;50.836;4.330;2023-03-16T02:47:34;7.90;99.90
23120;DHT22;11729;50.836;4.330;2023-03-16T02:50:01;7.80;99.90
23120;DHT22;11729;50.836;4.330;2023-03-16T02:52:34;7.80;99.90
23120;DHT22;11729;50.836;4.330;2023-03-16T02:55:00;7.90;99.90
23120;DHT22;11729;50.836;4.330;2023-03-16T02:57:26;7.90;99.90
23120;DHT22;11729;50.836;4.330;2023-03-16T02:59:52;7.80;99.90
23120;DHT22;11729;50.836;4.330;2023-03-16T03:02:17;7.70;99.90
23120;DHT22;11729;50.836;4.330;2023-03-16T03:04:43;7.70;99.90
23120;DHT22;11729;50.836;4.330;2023-03-16T03:07:12;7.80;99.90
23120;DHT22;11729;50.836;4.330;2023-03-16T03:09:40;8.00;99.90
23120;DHT22;11729;50.836;4.330;2023-03-16T03:12:08;7.90;99.90
23120;DHT22;11729;50.836;4.330;2023-03-16T03:14:34;7.80;99.90
23120;DHT22;11729;50.836;4.330;2023-03-16T03:17:07;7.70;99.90
23120;DHT22;11729;50.836;4.330;2023-03-16T03:19:34;7.70;99.90
23120;DHT22;11729;50.836;4.330;2023-03-16T03:22:02;7.70;99.90
23120;DHT22;11729;50.836;4.330;2023-03-16T03:24:29;7.70;99.90
23120;DHT22;11729;50.836;4.330;2023-03-16T03:26:56;7.70;99.90
23120;DHT22;11729;50.836;4.330;2023-03-16T03:29:21;7.70;99.90
23120;DHT22;11729;50.836;4.330;2023-03-16T03:31:47;7.80;99.90
23120;DHT22;11729;50.836;4.330;2023-03-16T03:34:13;7.80;99.90
23120;DHT22;11729;50.836;4.330;2023-03-16T03:36:38;7.90;99.90
23120;DHT22;11729;50.836;4.330;2023-03-16T03:39:04;7.90;99.90
23120;DHT22;11729;50.836;4.330;2023-03-16T03:41:31;8.00;99.90
23120;DHT22;11729;50.836;4.330;2023-03-16T03:43:58;8.10;99.90
23120;DHT22;11729;50.836;4.330;2023-03-16T03:46:24;8.10;99.90
23120;DHT22;11729;50.836;4.330;2023-03-16T03:48:50;8.10;99.90
23120;DHT22;11729;50.836;4.330;2023-03-16T03:51:17;8.10;99.90
23120;DHT22;11729;50.836;4.330;2023-03-16T03:53:42;8.20;99.90
23120;DHT22;11729;50.836;4.330;2023-03-16T03:56:08;8.10;99.90
23120;DHT22;11729;50.836;4.330;2023-03-16T03:58:34;8.10;99.90
23120;DHT22;11729;50.836;4.330;2023-03-16T04:00:59;7.90;99.90
23120;DHT22;11729;50.836;4.330;2023-03-16T04:03:25;8.00;99.90
23120;DHT22;11729;50.836;4.330;2023-03-16T04:05:51;8.00;99.90
23120;DHT22;11729;50.836;4.330;2023-03-16T04:08:17;8.00;99.90
23120;DHT22;11729;50.836;4.330;2023-03-16T04:10:43;7.90;99.90
23120;DHT22;11729;50.836;4.330;2023-03-16T04:13:09;7.90;99.90
23120;DHT22;11729;50.836;4.330;2023-03-16T04:15:34;7.90;99.90
23120;DHT22;11729;50.836;4.330;2023-03-16T04:18:04;7.90;99.90
23120;DHT22;11729;50.836;4.330;2023-03-16T04:20:29;7.90;99.90
23120;DHT22;11729;50.836;4.330;2023-03-16T04:22:55;8.10;99.90
23120;DHT22;11729;50.836;4.330;2023-03-16T04:25:23;8.00;99.90
23120;DHT22;11729;50.836;4.330;2023-03-16T04:27:51;8.00;99.90
23120;DHT22;11729;50.836;4.330;2023-03-16T04:30:17;7.90;99.90
23120;DHT22;11729;50.836;4.330;2023-03-16T04:32:43;7.80;99.90
23120;DHT22;11729;50.836;4.330;2023-03-16T04:35:09;7.80;99.90
23120;DHT22;11729;50.836;4.330;2023-03-16T04:37:35;7.90;99.90
23120;DHT22;11729;50.836;4.330;2023-03-16T04:40:00;8.00;99.90
23120;DHT22;11729;50.836;4.330;2023-03-16T04:42:34;7.90;99.90
23120;DHT22;11729;50.836;4.330;2023-03-16T04:45:00;7.80;99.90
23120;DHT22;11729;50.836;4.330;2023-03-16T04:47:25;7.70;99.90
23120;DHT22;11729;50.836;4.330;2023-03-16T04:49:51;7.70;99.90
23120;DHT22;11729;50.836;4.330;2023-03-16T04:52:17;7.60;99.90
23120;DHT22;11729;50.836;4.330;2023-03-16T04:54:42;7.50;99.90
23120;DHT22;11729;50.836;4.330;2023-03-16T04:57:09;7.40;99.90
23120;DHT22;11729;50.836;4.330;2023-03-16T04:59:35;7.40;99.90
23120;DHT22;11729;50.836;4.330;2023-03-16T05:02:00;7.50;99.90
23120;DHT22;11729;50.836;4.330;2023-03-16T05:04:26;7.70;99.90
23120;DHT22;11729;50.836;4.330;2023-03-16T05:06:53;7.80;99.90
23120;DHT22;11729;50.836;4.330;2023-03-16T05:09:19;7.80;99.90
23120;DHT22;11729;50.836;4.330;2023-03-16T05:11:45;7.80;99.90
23120;DHT22;11729;50.836;4.330;2023-03-16T05:14:10;7.80;99.90
23120;DHT22;11729;50.836;4.330;2023-03-16T05:16:36;7.80;99.90
23120;DHT22;11729;50.836;4.330;2023-03-16T05:19:02;7.80;99.90
23120;DHT22;11729;50.836;4.330;2023-03-16T05:21:29;7.80;99.90
23120;DHT22;11729;50.836;4.330;2023-03-16T05:23:56;7.80;99.90
23120;DHT22;11729;50.836;4.330;2023-03-16T05:26:22;7.90;99.90
23120;DHT22;11729;50.836;4.330;2023-03-16T05:28:50;8.00;99.90
23120;DHT22;11729;50.836;4.330;2023-03-16T05:31:16;8.00;99.90
23120;DHT22;11729;50.836;4.330;2023-03-16T05:33:42;8.10;99.90
23120;DHT22;11729;50.836;4.330;2023-03-16T05:36:09;8.10;99.90
23120;DHT22;11729;50.836;4.330;2023-03-16T05:38:35;8.00;99.90
23120;DHT22;11729;50.836;4.330;2023-03-16T05:41:01;8.10;99.90
23120;DHT22;11729;50.836;4.330;2023-03-16T05:43:29;7.90;99.90
23120;DHT22;11729;50.836;4.330;2023-03-16T05:45:55;8.00;99.90
23120;DHT22;11729;50.836;4.330;2023-03-16T05:48:22;8.00;99.90
23120;DHT22;11729;50.836;4.330;2023-03-16T05:50:50;8.00;99.90
23120;DHT22;11729;50.836;4.330;2023-03-16T05:53:16;7.90;99.90
23120;DHT22;11729;50.836;4.330;2023-03-16T05:55:41;7.90;99.90
23120;DHT22;11729;50.836;4.330;2023-03-16T05:58:07;8.00;99.90
23120;DHT22;11729;50.836;4.330;2023-03-16T06:00:33;8.00;99.90
23120;DHT22;11729;50.836;4.330;2023-03-16T06:02:58;8.10;99.90
23120;DHT22;11729;50.836;4.330;2023-03-16T06:05:24;8.20;99.90
23120;DHT22;11729;50.836;4.330;2023-03-16T06:07:51;8.30;99.90
23120;DHT22;11729;50.836;4.330;2023-03-16T06:10:17;8.20;99.90
23120;DHT22;11729;50.836;4.330;2023-03-16T06:12:43;8.20;99.90
23120;DHT22;11729;50.836;4.330;2023-03-16T06:15:10;8.20;99.90
23120;DHT22;11729;50.836;4.330;2023-03-16T06:17:37;8.20;99.90
23120;DHT22;11729;50.836;4.330;2023-03-16T06:20:05;8.20;99.90
23120;DHT22;11729;50.836;4.330;2023-03-16T06:22:36;8.10;99.90
23120;DHT22;11729;50.836;4.330;2023-03-16T06:25:05;8.10;99.90
23120;DHT22;11729;50.836;4.330;2023-03-16T06:27:31;8.20;99.90
23120;DHT22;11729;50.836;4.330;2023-03-16T06:29:57;8.10;99.90
23120;DHT22;11729;50.836;4.330;2023-03-16T06:32:22;8.30;99.90
23120;DHT22;11729;50.836;4.330;2023-03-16T06:34:48;8.30;99.90
23120;DHT22;11729;50.836;4.330;2023-03-16T06:37:13;8.30;99.90
23120;DHT22;11729;50.836;4.330;2023-03-16T06:39:39;8.40;99.90
23120;DHT22;11729;50.836;4.330;2023-03-16T06:42:05;8.30;99.90
23120;DHT22;11729;50.836;4.330;2023-03-16T06:44:31;8.40;99.90
23120;DHT22;11729;50.836;4.330;2023-03-16T06:46:57;8.40;99.90
23120;DHT22;11729;50.836;4.330;2023-03-16T06:49:22;8.30;99.90
23120;DHT22;11729;50.836;4.330;2023-03-16T06:51:48;8.30;99.90
23120;DHT22;11729;50.836;4.330;2023-03-16T06:54:14;8.30;99.90
23120;DHT22;11729;50.836;4.330;2023-03-16T06:56:39;8.40;99.90
23120;DHT22;11729;50.836;4.330;2023-03-16T06:59:05;8.30;99.90
23120;DHT22;11729;50.836;4.330;2023-03-16T07:01:31;8.30;99.90
23120;DHT22;11729;50.836;4.330;2023-03-16T07:03:57;8.40;99.90
23120;DHT22;11729;50.836;4.330;2023-03-16T07:06:23;8.50;99.90
23120;DHT22;11729;50.836;4.330;2023-03-16T07:08:48;8.40;99.90
23120;DHT22;11729;50.836;4.330;2023-03-16T07:11:14;8.40;99.90
23120;DHT22;11729;50.836;4.330;2023-03-16T07:13:40;8.40;99.90
23120;DHT22;11729;50.836;4.330;2023-03-16T07:16:06;8.50;99.90
23120;DHT22;11729;50.836;4.330;2023-03-16T07:18:32;8.60;99.90
23120;DHT22;11729;50.836;4.330;2023-03-16T07:20:58;8.70;99.90
23120;DHT22;11729;50.836;4.330;2023-03-16T07:23:25;8.70;99.90
23120;DHT22;11729;50.836;4.330;2023-03-16T07:25:51;8.80;99.90
23120;DHT22;11729;50.836;4.330;2023-03-16T07:28:18;8.80;99.90
23120;DHT22;11729;50.836;4.330;2023-03-16T07:30:47;9.00;99.90
23120;DHT22;11729;50.836;4.330;2023-03-16T07:33:13;9.60;99.90
23120;DHT22;11729;50.836;4.330;2023-03-16T07:35:39;10.00;99.90
23120;DHT22;11729;50.836;4.330;2023-03-16T07:38:05;10.50;99.90
23120;DHT22;11729;50.836;4.330;2023-03-16T07:40:31;10.70;99.90
23120;DHT22;11729;50.836;4.330;2023-03-16T07:42:58;10.80;99.90
23120;DHT22;11729;50.836;4.330;2023-03-16T07:45:24;11.70;99.90
23120;DHT22;11729;50.836;4.330;2023-03-16T07:47:50;12.20;99.90
23120;DHT22;11729;50.836;4.330;2023-03-16T07:50:15;12.40;99.90
23120;DHT22;11729;50.836;4.330;2023-03-16T07:52:44;11.90;99.90
23120;DHT22;11729;50.836;4.330;2023-03-16T07:55:11;11.60;99.90
23120;DHT22;11729;50.836;4.330;2023-03-16T07:57:37;12.20;99.90
23120;DHT22;11729;50.836;4.330;2023-03-16T08:00:04;12.40;99.90
23120;DHT22;11729;50.836;4.330;2023-03-16T08:02:32;12.70;99.90
23120;DHT22;11729;50.836;4.330;2023-03-16T08:04:57;12.80;99.90
23120;DHT22;11729;50.836;4.330;2023-03-16T08:07:23;12.60;99.90
23120;DHT22;11729;50.836;4.330;2023-03-16T08:09:49;12.60;99.90
23120;DHT22;11729;50.836;4.330;2023-03-16T08:12:15;12.50;99.90
23120;DHT22;11729;50.836;4.330;2023-03-16T08:14:41;12.00;99.90
23120;DHT22;11729;50.836;4.330;2023-03-16T08:17:10;12.10;99.90
23120;DHT22;11729;50.836;4.330;2023-03-16T08:19:36;12.10;99.90
23120;DHT22;11729;50.836;4.330;2023-03-16T08:22:03;12.00;99.90
23120;DHT22;11729;50.836;4.330;2023-03-16T08:24:30;11.90;99.90
23120;DHT22;11729;50.836;4.330;2023-03-16T08:26:56;12.00;99.90
23120;DHT22;11729;50.836;4.330;2023-03-16T08:29:23;12.00;99.90
23120;DHT22;11729;50.836;4.330;2023-03-16T08:31:49;12.30;99.90
23120;DHT22;11729;50.836;4.330;2023-03-16T08:34:17;12.60;99.90
23120;DHT22;11729;50.836;4.330;2023-03-16T08:36:43;12.70;99.90
23120;DHT22;11729;50.836;4.330;2023-03-16T08:39:09;12.90;99.90
23120;DHT22;11729;50.836;4.330;2023-03-16T08:41:35;12.80;99.90
23120;DHT22;11729;50.836;4.330;2023-03-16T08:44:01;13.00;99.90
23120;DHT22;11729;50.836;4.330;2023-03-16T08:46:27;13.20;99.90
23120;DHT22;11729;50.836;4.330;2023-03-16T08:48:53;13.40;99.90
23120;DHT22;11729;50.836;4.330;2023-03-16T08:51:20;13.70;99.90
23120;DHT22;11729;50.836;4.330;2023-03-16T08:53:46;13.60;99.90
23120;DHT22;11729;50.836;4.330;2023-03-16T08:56:12;13.50;99.90
23120;DHT22;11729;50.836;4.330;2023-03-16T08:58:40;13.50;99.90
23120;DHT22;11729;50.836;4.330;2023-03-16T09:01:12;13.60;99.90
23120;DHT22;11729;50.836;4.330;2023-03-16T09:03:38;13.10;99.90
23120;DHT22;11729;50.836;4.330;2023-03-16T09:06:08;13.00;99.90
23120;DHT22;11729;50.836;4.330;2023-03-16T09:08:35;13.00;99.90
23120;DHT22;11729;50.836;4.330;2023-03-16T09:11:02;13.10;99.90
23120;DHT22;11729;50.836;4.330;2023-03-16T09:13:30;12.60;99.90
23120;DHT22;11729;50.836;4.330;2023-03-16T09:15:56;12.60;99.90
23120;DHT22;11729;50.836;4.330;2023-03-16T09:18:23;12.40;99.90
23120;DHT22;11729;50.836;4.330;2023-03-16T09:20:51;12.40;99.90
23120;DHT22;11729;50.836;4.330;2023-03-16T09:23:17;12.20;99.90
23120;DHT22;11729;50.836;4.330;2023-03-16T09:25:44;12.40;99.90
23120;DHT22;11729;50.836;4.330;2023-03-16T09:28:09;12.40;99.90
23120;DHT22;11729;50.836;4.330;2023-03-16T09:30:36;12.40;99.90
23120;DHT22;11729;50.836;4.330;2023-03-16T09:33:02;12.60;99.90
23120;DHT22;11729;50.836;4.330;2023-03-16T09:35:29;12.50;99.90
23120;DHT22;11729;50.836;4.330;2023-03-16T09:37:55;12.70;99.90
23120;DHT22;11729;50.836;4.330;2023-03-16T09:40:24;12.90;99.90
23120;DHT22;11729;50.836;4.330;2023-03-16T09:43:26;12.80;99.90
23120;DHT22;11729;50.836;4.330;2023-03-16T09:48:47;13.40;99.90
23120;DHT22;11729;50.836;4.330;2023-03-16T09:51:35;13.80;99.90
23120;DHT22;11729;50.836;4.330;2023-03-16T09:54:18;14.20;98.80
23120;DHT22;11729;50.836;4.330;2023-03-16T09:56:45;14.40;98.60
23120;DHT22;11729;50.836;4.330;2023-03-16T09:59:14;14.70;96.00
23120;DHT22;11729;50.836;4.330;2023-03-16T10:10:15;16.50;91.70
23120;DHT22;11729;50.836;4.330;2023-03-16T10:12:46;17.40;85.50
23120;DHT22;11729;50.836;4.330;2023-03-16T10:15:22;17.80;80.20
23120;DHT22;11729;50.836;4.330;2023-03-16T10:20:23;17.60;74.80
23120;DHT22;11729;50.836;4.330;2023-03-16T10:22:52;17.40;77.20
23120;DHT22;11729;50.836;4.330;2023-03-16T10:27:55;18.50;74.30
23120;DHT22;11729;50.836;4.330;2023-03-16T10:30:33;18.70;74.60
23120;DHT22;11729;50.836;4.330;2023-03-16T10:33:12;18.80;72.50
23120;DHT22;11729;50.836;4.330;2023-03-16T10:35:48;18.00;70.80
23120;DHT22;11729;50.836;4.330;2023-03-16T10:38:51;18.30;71.70
23120;DHT22;11729;50.836;4.330;2023-03-16T10:41:29;18.00;71.90
23120;DHT22;11729;50.836;4.330;2023-03-16T10:44:01;18.40;71.30
23120;DHT22;11729;50.836;4.330;2023-03-16T10:46:47;18.10;71.40
23120;DHT22;11729;50.836;4.330;2023-03-16T10:49:22;18.00;70.70
23120;DHT22;11729;50.836;4.330;2023-03-16T10:51:51;18.30;67.90
23120;DHT22;11729;50.836;4.330;2023-03-16T10:54:28;18.40;68.10
23120;DHT22;11729;50.836;4.330;2023-03-16T10:56:57;18.50;67.70
23120;DHT22;11729;50.836;4.330;2023-03-16T10:59:33;18.50;66.50
23120;DHT22;11729;50.836;4.330;2023-03-16T11:02:01;18.50;66.80
23120;DHT22;11729;50.836;4.330;2023-03-16T11:04:31;18.80;66.90
23120;DHT22;11729;50.836;4.330;2023-03-16T11:06:58;18.70;64.30
23120;DHT22;11729;50.836;4.330;2023-03-16T11:09:30;18.50;64.20
23120;DHT22;11729;50.836;4.330;2023-03-16T11:11:58;18.50;64.00
23120;DHT22;11729;50.836;4.330;2023-03-16T11:14:26;17.80;66.50
23120;DHT22;11729;50.836;4.330;2023-03-16T11:17:02;18.00;66.60
23120;DHT22;11729;50.836;4.330;2023-03-16T11:19:32;17.70;65.10
23120;DHT22;11729;50.836;4.330;2023-03-16T11:24:39;17.10;65.80
23120;DHT22;11729;50.836;4.330;2023-03-16T11:27:24;16.80;67.30
23120;DHT22;11729;50.836;4.330;2023-03-16T11:30:01;16.80;66.90
23120;DHT22;11729;50.836;4.330;2023-03-16T11:32:32;17.00;68.00
23120;DHT22;11729;50.836;4.330;2023-03-16T11:35:00;17.20;66.80
23120;DHT22;11729;50.836;4.330;2023-03-16T11:43:17;17.50;66.10
23120;DHT22;11729;50.836;4.330;2023-03-16T11:45:49;17.30;65.90
23120;DHT22;11729;50.836;4.330;2023-03-16T11:50:57;16.80;67.90
23120;DHT22;11729;50.836;4.330;2023-03-16T12:09:18;18.70;63.20
23120;DHT22;11729;50.836;4.330;2023-03-16T12:17:31;19.40;63.70
23120;DHT22;11729;50.836;4.330;2023-03-16T12:20:02;18.60;61.10
23120;DHT22;11729;50.836;4.330;2023-03-16T12:22:43;18.10;64.10
23120;DHT22;11729;50.836;4.330;2023-03-16T12:25:36;18.40;63.40
23120;DHT22;11729;50.836;4.330;2023-03-16T12:28:12;18.70;62.60
23120;DHT22;11729;50.836;4.330;2023-03-16T12:41:59;20.20;59.90
23120;DHT22;11729;50.836;4.330;2023-03-16T12:44:47;20.30;59.80
23120;DHT22;11729;50.836;4.330;2023-03-16T12:47:31;20.10;60.10
23120;DHT22;11729;50.836;4.330;2023-03-16T12:50:04;19.90;60.10
23120;DHT22;11729;50.836;4.330;2023-03-16T12:52:42;20.10;60.00
23120;DHT22;11729;50.836;4.330;2023-03-16T12:55:19;20.20;57.20
23120;DHT22;11729;50.836;4.330;2023-03-16T12:57:47;19.30;58.30
23120;DHT22;11729;50.836;4.330;2023-03-16T13:00:15;19.10;59.50
23120;DHT22;11729;50.836;4.330;2023-03-16T13:02:46;18.90;59.20
23120;DHT22;11729;50.836;4.330;2023-03-16T13:05:17;19.10;60.20
23120;DHT22;11729;50.836;4.330;2023-03-16T13:07:48;19.00;60.10
23120;DHT22;11729;50.836;4.330;2023-03-16T13:10:18;19.00;61.50
23120;DHT22;11729;50.836;4.330;2023-03-16T13:12:46;19.20;61.90
23120;DHT22;11729;50.836;4.330;2023-03-16T13:18:33;19.20;59.20
23120;DHT22;11729;50.836;4.330;2023-03-16T13:20:58;18.80;60.20
23120;DHT22;11729;50.836;4.330;2023-03-16T13:23:28;18.30;61.40
23120;DHT22;11729;50.836;4.330;2023-03-16T13:26:15;17.60;62.30
23120;DHT22;11729;50.836;4.330;2023-03-16T13:28:44;18.00;62.50
23120;DHT22;11729;50.836;4.330;2023-03-16T13:31:34;18.10;62.30
23120;DHT22;11729;50.836;4.330;2023-03-16T13:34:02;18.40;61.00
23120;DHT22;11729;50.836;4.330;2023-03-16T13:36:31;18.20;61.10
23120;DHT22;11729;50.836;4.330;2023-03-16T13:39:17;18.60;61.00
23120;DHT22;11729;50.836;4.330;2023-03-16T13:44:22;20.10;58.70
23120;DHT22;11729;50.836;4.330;2023-03-16T13:46:49;20.10;56.60
23120;DHT22;11729;50.836;4.330;2023-03-16T13:49:16;20.20;58.00
23120;DHT22;11729;50.836;4.330;2023-03-16T13:51:43;20.60;56.50
23120;DHT22;11729;50.836;4.330;2023-03-16T13:56:50;21.20;54.50
23120;DHT22;11729;50.836;4.330;2023-03-16T13:59:17;20.40;54.50
23120;DHT22;11729;50.836;4.330;2023-03-16T14:01:44;19.30;55.90
23120;DHT22;11729;50.836;4.330;2023-03-16T14:04:11;18.90;57.30
23120;DHT22;11729;50.836;4.330;2023-03-16T14:06:40;18.70;57.80
23120;DHT22;11729;50.836;4.330;2023-03-16T14:09:19;18.20;58.10
23120;DHT22;11729;50.836;4.330;2023-03-16T14:11:46;17.80;59.00
23120;DHT22;11729;50.836;4.330;2023-03-16T14:14:14;17.50;60.10
23120;DHT22;11729;50.836;4.330;2023-03-16T14:16:40;17.60;60.70
23120;DHT22;11729;50.836;4.330;2023-03-16T14:19:16;17.90;60.80
23120;DHT22;11729;50.836;4.330;2023-03-16T14:21:44;17.70;60.20
23120;DHT22;11729;50.836;4.330;2023-03-16T14:26:53;16.80;61.20
23120;DHT22;11729;50.836;4.330;2023-03-16T14:29:29;16.60;62.90
23120;DHT22;11729;50.836;4.330;2023-03-16T14:31:56;16.60;63.10
23120;DHT22;11729;50.836;4.330;2023-03-16T14:34:35;16.40;63.30
23120;DHT22;11729;50.836;4.330;2023-03-16T14:37:11;16.30;63.40
23120;DHT22;11729;50.836;4.330;2023-03-16T14:39:37;16.30;63.50
23120;DHT22;11729;50.836;4.330;2023-03-16T14:42:10;16.10;64.10
23120;DHT22;11729;50.836;4.330;2023-03-16T14:44:38;16.30;64.00
23120;DHT22;11729;50.836;4.330;2023-03-16T14:47:04;16.40;63.30
23120;DHT22;11729;50.836;4.330;2023-03-16T14:49:37;16.40;64.30
23120;DHT22;11729;50.836;4.330;2023-03-16T14:54:38;16.20;63.00
23120;DHT22;11729;50.836;4.330;2023-03-16T14:57:04;16.40;63.40
23120;DHT22;11729;50.836;4.330;2023-03-16T14:59:31;16.50;62.20
23120;DHT22;11729;50.836;4.330;2023-03-16T15:01:58;16.60;62.30
23120;DHT22;11729;50.836;4.330;2023-03-16T15:04:30;16.70;62.80
23120;DHT22;11729;50.836;4.330;2023-03-16T15:06:57;16.70;62.30
23120;DHT22;11729;50.836;4.330;2023-03-16T15:11:57;16.50;62.80
23120;DHT22;11729;50.836;4.330;2023-03-16T15:14:23;16.40;63.30
23120;DHT22;11729;50.836;4.330;2023-03-16T15:17:07;16.20;64.10
23120;DHT22;11729;50.836;4.330;2023-03-16T15:19:33;16.10;65.30
23120;DHT22;11729;50.836;4.330;2023-03-16T15:22:00;16.10;64.10
23120;DHT22;11729;50.836;4.330;2023-03-16T15:24:27;16.10;63.30
23120;DHT22;11729;50.836;4.330;2023-03-16T15:26:55;16.10;61.80
23120;DHT22;11729;50.836;4.330;2023-03-16T15:29:21;16.00;61.50
23120;DHT22;11729;50.836;4.330;2023-03-16T15:31:47;16.10;61.50
23120;DHT22;11729;50.836;4.330;2023-03-16T15:34:12;16.00;60.80
23120;DHT22;11729;50.836;4.330;2023-03-16T15:36:38;15.80;61.50
23120;DHT22;11729;50.836;4.330;2023-03-16T15:39:04;15.80;61.50
23120;DHT22;11729;50.836;4.330;2023-03-16T15:41:30;15.70;62.20
23120;DHT22;11729;50.836;4.330;2023-03-16T15:43:56;15.90;62.40
23120;DHT22;11729;50.836;4.330;2023-03-16T15:46:26;15.90;62.30
23120;DHT22;11729;50.836;4.330;2023-03-16T15:48:52;15.90;62.00
23120;DHT22;11729;50.836;4.330;2023-03-16T15:51:22;15.90;61.50
23120;DHT22;11729;50.836;4.330;2023-03-16T15:54:03;15.90;61.70
23120;DHT22;11729;50.836;4.330;2023-03-16T15:56:32;15.80;62.00
23120;DHT22;11729;50.836;4.330;2023-03-16T15:59:02;15.80;62.60
23120;DHT22;11729;50.836;4.330;2023-03-16T16:01:35;15.70;62.90
23120;DHT22;11729;50.836;4.330;2023-03-16T16:04:05;15.60;63.60
23120;DHT22;11729;50.836;4.330;2023-03-16T16:06:31;15.70;64.40
23120;DHT22;11729;50.836;4.330;2023-03-16T16:08:56;15.80;65.20
23120;DHT22;11729;50.836;4.330;2023-03-16T16:11:24;15.80;65.00
23120;DHT22;11729;50.836;4.330;2023-03-16T16:13:55;15.90;64.30
23120;DHT22;11729;50.836;4.330;2023-03-16T16:16:21;15.90;65.40
23120;DHT22;11729;50.836;4.330;2023-03-16T16:18:47;16.00;66.30
23120;DHT22;11729;50.836;4.330;2023-03-16T16:21:19;16.00;67.20
23120;DHT22;11729;50.836;4.330;2023-03-16T16:23:46;16.10;67.70
23120;DHT22;11729;50.836;4.330;2023-03-16T16:29:14;15.90;70.40
23120;DHT22;11729;50.836;4.330;2023-03-16T16:31:41;15.90;70.90
23120;DHT22;11729;50.836;4.330;2023-03-16T16:34:12;15.90;71.60
23120;DHT22;11729;50.836;4.330;2023-03-16T16:36:38;15.80;72.50
23120;DHT22;11729;50.836;4.330;2023-03-16T16:39:04;15.70;73.20
23120;DHT22;11729;50.836;4.330;2023-03-16T16:41:31;15.70;73.90
23120;DHT22;11729;50.836;4.330;2023-03-16T16:43:58;15.60;74.30
23120;DHT22;11729;50.836;4.330;2023-03-16T16:46:32;15.50;75.20
23120;DHT22;11729;50.836;4.330;2023-03-16T16:49:03;15.50;75.70
23120;DHT22;11729;50.836;4.330;2023-03-16T16:51:30;15.40;76.50
23120;DHT22;11729;50.836;4.330;2023-03-16T16:53:58;15.30;77.40
23120;DHT22;11729;50.836;4.330;2023-03-16T16:56:33;15.20;78.10
23120;DHT22;11729;50.836;4.330;2023-03-16T16:59:30;15.20;78.60
23120;DHT22;11729;50.836;4.330;2023-03-16T17:01:56;15.20;79.00
23120;DHT22;11729;50.836;4.330;2023-03-16T17:04:24;15.20;79.10
23120;DHT22;11729;50.836;4.330;2023-03-16T17:06:51;15.10;78.80
23120;DHT22;11729;50.836;4.330;2023-03-16T17:09:20;15.10;79.00
23120;DHT22;11729;50.836;4.330;2023-03-16T17:11:47;15.20;78.60
23120;DHT22;11729;50.836;4.330;2023-03-16T17:14:17;15.20;78.10
23120;DHT22;11729;50.836;4.330;2023-03-16T17:16:44;15.10;77.90